バンダルスリブガワン の空港の天気 - METARとTAF

ブルネイ国際空港 ( WBSB / BWN ) - ブルネイ バンダルスリブガワン
飛行場実況気象(Metar)
観測時間10/23 21:00 BNT (10/23 13:00 UTC)
風向・風速西 1m/s
視程10km以上
天気現象
少しの雲 雲底高度 460m
全天の8割程度の雲 雲底高度 8530m
気温26℃
湿度94%
気圧1012hPa
METARWBSB 231300Z 28002KT 9999 FEW015 BKN280 26/25 Q1012 NOSIG
過去の天気等 Google飛行場航空写真 Wunderground天気予報

過去48時間のMETAR

飛行場予報(TAF)
発表時間: 10/23 18:50 BNT (10/23 10:50 UTC)
予報対象時間: 23日20時 BNT ~ 25日2時 BNT
風向・風速南西 3m/s
視程10km以上
少しの雲 雲底高度 460m
少しの積乱雲 雲底高度 490m
23日22時 BNT ~ 23日24時 BNT に一時的に
視程7,000m
天気現象弱いしゅう雨
24日12時 BNT ~ 24日14時 BNT に徐々に
風向・風速西 5m/s
少しの雲 雲底高度 490m
少しの積乱雲 雲底高度 520m
TAF WBSB 231050Z 2312/2418 22005KT 9999 FEW015 FEW016CB
TEMPO 2314/2316 7000 -SHRA
BECMG 2404/2406 26010KT FEW016 FEW017CB